Flight Track Log - Related Links

Times and Time Zones

All times are in EDT time to prevent confusion due to time zone crossing. See the PDT4207 flight status page for this flight to view local times or setup timezone preferences in your user account.

Time Position Orientation Groundspeed Altitude Reporting Facility
EDT Latitude Longitude Course Direction KTS MPH feet Rate Location/Type
Sat 09:36:37 PM 39.9000 -75.2333 351° North 116 133 700  Level Philadelphia TRACON
Sat 09:37:55 PM 39.9500 -75.2500 346° North 164 189 2,400 1,261 Climbing Philadelphia TRACON
Sat 09:38:55 PM 39.9833 -75.2500 360° North 168 193 3,600 889 Climbing Philadelphia TRACON
Sat 09:39:00 PM 40.0723 -75.3020 349° North  Level Estimated
Sat 09:39:43 PM 40.0333 -75.2667 346° North 180 207 4,000  Level Philadelphia TRACON
Sat 09:40:00 PM 40.1399 -75.3165 351° North  Level FlightAware Approximate
Sat 09:40:55 PM 40.1000 -75.2833 349° North 225 259 4,000  Level Philadelphia TRACON
Sat 09:41:00 PM 40.2074 -75.3310 351° North  Level FlightAware Approximate
Sat 09:41:49 PM 40.1500 -75.3000 346° North 226 260 4,000  Level Philadelphia TRACON
Sat 09:43:00 PM 40.2293 -75.3220 348° North  Level FlightAware Approximate
Sat 09:50:00 PM 40.6993 -75.4456 349° North  Level FlightAware Approximate
Sat 09:51:00 PM 40.7675 -75.4500 North  Level FlightAware Approximate
Sat 09:52:00 PM 40.8360 -75.4500 North  Level FlightAware Approximate
Sat 09:53:00 PM 40.9045 -75.4500 North  Level FlightAware Approximate
Sat 09:54:00 PM 40.9730 -75.4500 North  Level FlightAware Approximate
Sat 09:55:00 PM 41.0414 -75.4506 357° North  Level FlightAware Approximate
Sat 09:56:00 PM 41.1098 -75.4559 357° North  Level FlightAware Approximate
Sat 09:57:00 PM 41.1782 -75.4611 357° North  Level FlightAware Approximate
Sat 09:58:00 PM 41.2466 -75.4664 357° North  Level FlightAware Approximate
Sat 09:59:00 PM 41.3150 -75.4667 North  Level FlightAware Approximate
Sat 10:00:00 PM 41.3835 -75.4667 North  Level FlightAware Approximate
Sat 10:01:00 PM 41.4520 -75.4667 North  Level FlightAware Approximate
Sat 10:02:00 PM 41.5098 -75.5096 323° Northwest  Level FlightAware Approximate
Sat 10:03:00 PM 41.5647 -75.5644 323° Northwest  Level FlightAware Approximate
Sat 10:04:00 PM 41.6195 -75.6192 323° Northwest  Level FlightAware Approximate
Sat 10:05:00 PM 41.6743 -75.6742 323° Northwest  Level FlightAware Approximate
Sat 10:06:00 PM 41.7295 -75.7285 326° Northwest  Level FlightAware Approximate
Sat 10:07:00 PM 41.7859 -75.7804 326° Northwest  Level FlightAware Approximate
Sat 10:08:00 PM 41.8424 -75.8325 326° Northwest  Level FlightAware Approximate
Sat 10:09:00 PM 41.8988 -75.8847 325° Northwest  Level FlightAware Approximate
Sat 10:10:00 PM 41.9546 -75.9380 323° Northwest  Level FlightAware Approximate
Sat 10:11:00 PM 42.0096 -75.9929 323° Northwest  Level FlightAware Approximate
Sat 10:12:00 PM 42.0646 -76.0478 323° Northwest  Level FlightAware Approximate
Sat 10:13:00 PM 42.1196 -76.1029 323° Northwest  Level FlightAware Approximate
Sat 10:14:00 PM 42.1547 -76.0953 37° Northeast  Level FlightAware Approximate
Sat 10:15:00 PM 42.1921 -76.0197 62° Northeast  Level FlightAware Approximate
Sat 10:16:00 PM 42.2000 -75.9667 90° East  Level FlightAware Approximate
Sat 10:17:00 PM 42.2084 -75.9796 90° East  Level Estimated
Sat 10:18:00 PM 42.2084 -75.9796 90° East  Level Estimated
Sat 10:19:00 PM 42.2084 -75.9796 90° East  Level Estimated

Login

Don't have an account? Register now (free) for customized features, flight alerts, and more!